Time;durP1;ratioP1;P1;durP2;ratioP2;P2;SDS_P1;SDS_P2;PMS_P1;PMS_P2;Temp;Humidity;BMP_temperature;BMP_pressure;BME280_temperature;BME280_humidity;BME280_pressure;Samples;Min_cycle;Max_cycle;Signal;HPM_P1;HPM_P2
2021/07/02 00:02:09;;;;;;;6.53;3.58;;;;;;;24.19;55.25;99621.69;1661364;85;20911;-85
2021/07/02 00:04:35;;;;;;;5.15;3.30;;;;;;;24.15;55.41;99625.99;1656602;85;20911;-85
2021/07/02 00:07:01;;;;;;;4.70;3.30;;;;;;;24.11;55.45;99633.77;1660158;84;22036;-85
2021/07/02 00:09:27;;;;;;;7.42;3.70;;;;;;;24.11;55.88;99635.12;1659111;85;21039;-85
2021/07/02 00:11:53;;;;;;;7.28;3.60;;;;;;;24.08;55.74;99641.58;1655307;85;21502;-84
2021/07/02 00:14:18;;;;;;;7.40;3.27;;;;;;;23.92;56.15;99649.54;1656043;86;20959;-84
2021/07/02 00:16:44;;;;;;;6.35;3.40;;;;;;;23.98;56.17;99638.27;1655417;86;21007;-84
2021/07/02 00:19:10;;;;;;;7.15;3.50;;;;;;;23.90;56.24;99639.55;1655078;85;21155;-85
2021/07/02 00:21:36;;;;;;;4.70;3.35;;;;;;;23.90;56.41;99639.55;1656108;84;22162;-85
2021/07/02 00:24:01;;;;;;;6.75;3.45;;;;;;;23.87;56.66;99644.11;1660464;84;20928;-87
2021/07/02 00:26:27;;;;;;;4.47;3.37;;;;;;;24.08;56.19;99639.68;1657039;85;20971;-86
2021/07/02 00:28:53;;;;;;;10.55;3.35;;;;;;;24.08;56.19;99639.68;1657779;86;21376;-85
2021/07/02 00:31:19;;;;;;;5.58;3.50;;;;;;;24.05;56.44;99647.48;1657793;86;21761;-86
2021/07/02 00:33:44;;;;;;;6.60;3.35;;;;;;;24.12;56.47;99653.48;1655050;84;20900;-84
2021/07/02 00:36:10;;;;;;;5.58;2.98;;;;;;;23.96;57.29;99641.77;1659774;86;21087;-85
2021/07/02 00:38:36;;;;;;;6.95;3.20;;;;;;;23.79;57.63;99646.71;1660007;85;20943;-85
2021/07/02 00:41:02;;;;;;;7.80;3.20;;;;;;;23.92;57.46;99652.78;1656321;86;21003;-85
2021/07/02 00:43:28;;;;;;;7.00;3.15;;;;;;;23.98;57.53;99648.52;1657056;85;21074;-85
2021/07/02 00:45:54;;;;;;;5.30;3.08;;;;;;;23.94;57.61;99645.23;1654530;85;20896;-85
2021/07/02 00:48:20;;;;;;;4.37;2.90;;;;;;;23.87;57.99;99651.40;1659011;85;20904;-85
2021/07/02 00:50:46;;;;;;;7.00;2.98;;;;;;;23.79;58.55;99649.95;1660801;85;20975;-85
2021/07/02 00:53:12;;;;;;;5.33;3.02;;;;;;;23.61;59.05;99646.53;1645586;86;21617;-85
2021/07/02 00:55:38;;;;;;;5.72;2.72;;;;;;;23.64;59.08;99640.63;1677030;84;21087;-86
2021/07/02 00:58:06;;;;;;;8.10;3.05;;;;;;;23.60;58.56;99644.92;1675532;83;21218;-85
2021/07/02 01:00:32;;;;;;;4.60;2.80;;;;;;;23.66;58.69;99646.60;1674001;85;21087;-85
2021/07/02 01:02:58;;;;;;;4.42;2.90;;;;;;;23.60;58.80;99648.97;1643533;83;21388;-85
2021/07/02 01:05:23;;;;;;;3.75;2.80;;;;;;;23.61;59.52;99641.14;1674272;85;20901;-85
2021/07/02 01:07:49;;;;;;;5.58;2.90;;;;;;;23.28;60.55;99640.27;1670568;85;21379;-85
2021/07/02 01:10:19;;;;;;;7.58;2.98;;;;;;;23.35;60.64;99636.56;1657079;83;21321;-86
2021/07/02 01:12:45;;;;;;;3.87;2.65;;;;;;;23.32;60.99;99635.73;1658672;83;21146;-86
2021/07/02 01:15:26;;;;;;;4.25;2.60;;;;;;;23.30;60.94;99640.86;1676496;85;21179;-82
2021/07/02 01:17:52;;;;;;;5.00;2.60;;;;;;;23.07;61.71;99635.69;1659706;83;21036;-83
2021/07/02 01:20:18;;;;;;;5.05;2.70;;;;;;;23.17;61.82;99649.31;1644028;83;21126;-82
2021/07/02 01:22:44;;;;;;;5.83;2.58;;;;;;;23.02;62.28;99657.18;1673619;83;21665;-83
2021/07/02 01:25:11;;;;;;;3.80;2.80;;;;;;;23.04;62.46;99649.66;1646171;83;20976;-83
2021/07/02 01:27:36;;;;;;;4.40;2.55;;;;;;;23.07;62.47;99650.50;1661561;83;21008;-82
2021/07/02 01:30:04;;;;;;;5.78;2.70;;;;;;;22.93;63.05;99637.95;1650644;83;20992;-82
2021/07/02 01:32:30;;;;;;;5.00;2.60;;;;;;;22.89;62.97;99651.10;1667165;83;21314;-82
2021/07/02 01:34:56;;;;;;;4.30;2.60;;;;;;;22.94;63.12;99640.93;1655768;83;21003;-82
2021/07/02 01:37:22;;;;;;;4.67;2.75;;;;;;;22.82;63.64;99637.00;1664114;83;20928;-82
2021/07/02 01:39:47;;;;;;;3.42;2.50;;;;;;;22.78;63.71;99646.66;1669690;83;21113;-81
2021/07/02 01:42:13;;;;;;;5.20;2.50;;;;;;;22.84;63.66;99648.36;1650852;83;21013;-81
2021/07/02 01:44:39;;;;;;;4.10;2.52;;;;;;;22.74;64.19;99652.25;1662249;83;21021;-82
2021/07/02 01:47:05;;;;;;;5.87;2.60;;;;;;;22.77;64.13;99653.90;1669717;83;21118;-82
2021/07/02 01:49:31;;;;;;;3.80;2.30;;;;;;;22.65;64.80;99649.70;1656394;83;21171;-83
2021/07/02 01:51:57;;;;;;;5.72;2.67;;;;;;;22.49;65.32;99652.17;1669710;85;21305;-82
2021/07/02 01:54:23;;;;;;;4.28;2.30;;;;;;;22.34;66.08;99654.12;1671076;84;20944;-82
2021/07/02 01:56:49;;;;;;;6.75;2.95;;;;;;;22.35;65.88;99663.00;1628299;84;21156;-83
2021/07/02 01:59:16;;;;;;;4.87;2.33;;;;;;;22.15;66.48;99666.96;1618063;84;21105;-82
2021/07/02 02:01:43;;;;;;;6.20;2.85;;;;;;;22.02;67.53;99660.58;1626759;85;21237;-83
2021/07/02 02:04:09;;;;;;;5.62;2.47;;;;;;;21.96;67.64;99669.62;1633085;86;21533;-83
2021/07/02 02:06:35;;;;;;;4.03;2.45;;;;;;;21.97;67.37;99659.96;1625458;86;21109;-81
2021/07/02 02:09:00;;;;;;;5.15;2.47;;;;;;;21.97;67.34;99664.50;1632452;86;20963;-82
2021/07/02 02:11:27;;;;;;;3.22;2.45;;;;;;;21.86;67.66;99671.08;1627979;86;20991;-83
2021/07/02 02:13:55;;;;;;;4.20;2.60;;;;;;;21.72;68.74;99671.61;1636326;86;27470;-82
2021/07/02 02:16:20;;;;;;;;;;;;;;;21.73;68.98;99675.39;1690773;83;21078;-82
2021/07/02 02:18:46;;;;;;;3.50;2.20;;;;;;;21.63;69.16;99673.34;1683467;83;20511;-81
2021/07/02 02:21:12;;;;;;;3.00;2.40;;;;;;;21.91;68.54;99673.54;1690105;84;21360;-83
2021/07/02 02:23:38;;;;;;;2.85;2.17;;;;;;;21.79;69.09;99681.15;1691065;84;20884;-82
2021/07/02 02:26:03;;;;;;;4.03;2.58;;;;;;;21.76;68.86;99672.23;1689338;84;21005;-82
2021/07/02 02:28:29;;;;;;;3.42;2.55;;;;;;;21.75;69.23;99674.65;1690342;83;20975;-82
2021/07/02 02:30:55;;;;;;;3.70;2.60;;;;;;;21.56;70.09;99675.89;1689822;83;21142;-84
2021/07/02 02:33:21;;;;;;;2.92;2.30;;;;;;;21.63;69.91;99669.86;1689952;83;21584;-82
2021/07/02 02:35:46;;;;;;;3.58;2.70;;;;;;;21.67;70.18;99665.61;1690065;83;20903;-82
2021/07/02 02:38:12;;;;;;;4.95;2.40;;;;;;;21.48;70.18;99672.49;1683505;84;20919;-82
2021/07/02 02:40:38;;;;;;;3.40;2.50;;;;;;;21.49;70.58;99671.48;1687140;83;21025;-82
2021/07/02 02:43:04;;;;;;;5.92;2.70;;;;;;;21.50;70.14;99663.72;1690025;84;21472;-82
2021/07/02 02:45:30;;;;;;;5.67;2.72;;;;;;;21.37;71.05;99659.94;1687974;84;21086;-82
2021/07/02 02:47:55;;;;;;;4.85;2.90;;;;;;;21.28;71.29;99658.68;1691140;83;20982;-82
2021/07/02 02:50:21;;;;;;;4.37;2.77;;;;;;;21.34;71.59;99662.56;1687811;83;20908;-82
2021/07/02 02:52:47;;;;;;;4.80;2.47;;;;;;;21.35;71.46;99660.70;1693010;83;20912;-82
2021/07/02 02:55:13;;;;;;;5.05;2.80;;;;;;;21.33;71.78;99665.48;1690409;83;21125;-82
2021/07/02 02:57:39;;;;;;;4.25;3.00;;;;;;;21.14;72.26;99658.94;1688159;84;21625;-81
2021/07/02 03:00:09;;;;;;;3.70;2.60;;;;;;;21.15;72.75;99658.44;1686514;83;20955;-82
2021/07/02 03:02:34;;;;;;;5.87;2.90;;;;;;;21.07;73.52;99651.57;1690612;83;21082;-81
2021/07/02 03:05:00;;;;;;;4.80;2.95;;;;;;;21.14;73.38;99655.45;1676587;84;21032;-82
2021/07/02 03:07:26;;;;;;;4.58;2.85;;;;;;;21.09;73.91;99656.16;1643837;84;21021;-82
2021/07/02 03:09:51;;;;;;;6.62;3.20;;;;;;;21.06;74.00;99666.03;1643890;84;21096;-82
2021/07/02 03:12:17;;;;;;;7.83;2.92;;;;;;;21.18;73.28;99658.47;1644722;84;21362;-82
2021/07/02 03:14:43;;;;;;;4.00;2.98;;;;;;;21.08;73.74;99676.00;1643027;85;20965;-82
2021/07/02 03:17:09;;;;;;;7.28;3.20;;;;;;;21.03;73.58;99662.48;1645081;84;20933;-82
2021/07/02 03:19:35;;;;;;;4.78;3.20;;;;;;;21.07;73.73;99660.97;1620431;84;20968;-82
2021/07/02 03:22:01;;;;;;;5.92;2.95;;;;;;;21.00;73.79;99664.30;1626471;84;21291;-82
2021/07/02 03:24:27;;;;;;;4.97;3.10;;;;;;;21.03;73.91;99662.48;1648052;84;20929;-81
2021/07/02 03:26:52;;;;;;;7.37;3.75;;;;;;;21.11;73.40;99663.45;1641498;84;20926;-83
2021/07/02 03:29:18;;;;;;;4.22;3.40;;;;;;;21.01;73.07;99663.80;1628904;84;20916;-82
2021/07/02 03:31:44;;;;;;;5.62;3.05;;;;;;;20.95;73.30;99662.86;1619955;84;21231;-82
2021/07/02 03:34:09;;;;;;;5.40;3.40;;;;;;;20.97;73.14;99656.21;1635365;84;21159;-81
2021/07/02 03:36:35;;;;;;;6.17;3.50;;;;;;;20.98;72.97;99654.33;1645300;84;21000;-81
2021/07/02 03:39:04;;;;;;;6.53;3.80;;;;;;;20.86;73.41;99652.20;1644173;84;21150;-81
2021/07/02 03:41:29;;;;;;;5.05;3.50;;;;;;;20.79;73.58;99670.59;1632970;84;21558;-82
2021/07/02 03:43:55;;;;;;;5.83;3.62;;;;;;;20.99;72.77;99661.34;1635022;85;21023;-82
2021/07/02 03:46:21;;;;;;;5.70;3.67;;;;;;;21.21;72.30;99655.30;1640103;84;21157;-82
2021/07/02 03:48:47;;;;;;;5.75;3.70;;;;;;;20.94;72.88;99677.32;1635834;84;21153;-82
2021/07/02 03:51:12;;;;;;;7.42;3.90;;;;;;;20.91;72.33;99669.23;1623184;85;20944;-83
2021/07/02 03:53:38;;;;;;;5.28;4.22;;;;;;;20.90;72.60;99657.39;1623140;84;21440;-82
2021/07/02 03:56:05;;;;;;;5.25;3.95;;;;;;;21.01;72.00;99653.05;1646489;84;21043;-81
2021/07/02 03:58:31;;;;;;;;;;;;;;;20.84;72.70;99652.44;1631228;84;21951;-81
2021/07/02 04:00:58;;;;;;;6.67;4.15;;;;;;;20.94;72.51;99667.92;1651937;85;20181;-81
2021/07/02 04:03:24;;;;;;;6.00;4.17;;;;;;;20.51;73.67;99666.41;1621532;84;21923;-81
2021/07/02 04:05:50;;;;;;;5.47;4.30;;;;;;;20.75;73.04;99664.05;1626715;84;20883;-82
2021/07/02 04:08:16;;;;;;;8.90;4.25;;;;;;;20.79;72.93;99657.17;1642005;84;20993;-83
2021/07/02 04:10:41;;;;;;;5.30;4.12;;;;;;;20.73;73.64;99656.77;1641980;84;21784;-82
2021/07/02 04:13:07;;;;;;;6.30;4.47;;;;;;;20.71;73.20;99664.24;1625156;84;20958;-81
2021/07/02 04:15:34;;;;;;;8.88;4.42;;;;;;;20.73;73.73;99660.79;1638244;84;21977;-82
2021/07/02 04:17:59;;;;;;;6.67;4.62;;;;;;;20.87;73.32;99653.30;1631591;84;21247;-82
2021/07/02 04:20:25;;;;;;;6.58;5.03;;;;;;;20.95;72.46;99652.93;1653160;84;21029;-81
2021/07/02 04:22:51;;;;;;;9.43;4.85;;;;;;;20.77;73.32;99656.59;1625151;84;21092;-82
2021/07/02 04:25:17;;;;;;;8.98;4.50;;;;;;;20.82;73.30;99666.63;1631736;84;20936;-82
2021/07/02 04:27:43;;;;;;;8.53;4.92;;;;;;;20.88;73.05;99655.45;1626605;84;21400;-81
2021/07/02 04:30:10;;;;;;;8.25;4.83;;;;;;;20.66;73.94;99661.43;1618697;84;20920;-81
2021/07/02 04:32:36;;;;;;;6.72;4.60;;;;;;;20.75;73.74;99665.39;1632101;84;21116;-81
2021/07/02 04:35:04;;;;;;;7.20;4.53;;;;;;;20.53;74.31;99675.06;1624906;84;22038;-81
2021/07/02 04:37:30;;;;;;;6.50;4.90;;;;;;;20.80;73.62;99681.62;1631321;84;21799;-82
2021/07/02 04:39:56;;;;;;;6.30;4.47;;;;;;;20.51;74.00;99690.56;1623442;84;20925;-83
2021/07/02 04:42:21;;;;;;;7.75;5.20;;;;;;;20.64;73.80;99674.23;1623927;85;20976;-80
2021/07/02 04:44:47;;;;;;;7.45;5.00;;;;;;;20.42;73.95;99682.06;1618472;84;20909;-82
2021/07/02 04:47:13;;;;;;;7.45;5.17;;;;;;;20.73;73.50;99680.11;1623140;84;21007;-85
2021/07/02 04:49:39;;;;;;;6.45;5.05;;;;;;;20.64;73.21;99679.61;1618195;84;20932;-84
2021/07/02 04:52:06;;;;;;;7.42;5.78;;;;;;;20.61;73.18;99697.52;1618678;84;21012;-84
2021/07/02 04:54:31;;;;;;;8.00;5.72;;;;;;;20.40;73.97;99693.52;1635435;84;21155;-85
2021/07/02 04:56:58;;;;;;;7.50;5.75;;;;;;;20.53;73.34;99697.88;1637062;84;21110;-85
2021/07/02 04:59:28;;;;;;;6.92;5.70;;;;;;;20.72;72.76;99695.38;1645174;85;21664;-88
2021/07/02 05:01:55;;;;;;;8.75;5.87;;;;;;;20.69;72.64;99703.89;1653062;85;21689;-88
2021/07/02 05:04:21;;;;;;;6.87;5.42;;;;;;;20.62;72.62;99708.01;1639677;84;21107;-88
2021/07/02 05:06:47;;;;;;;9.33;5.90;;;;;;;20.59;73.41;99700.42;1650380;84;21013;-85
2021/07/02 05:09:12;;;;;;;7.72;5.78;;;;;;;20.55;74.02;99716.69;1647453;85;22471;-84
2021/07/02 05:11:39;;;;;;;7.47;5.67;;;;;;;20.35;74.82;99712.99;1647610;84;21166;-90
2021/07/02 05:14:05;;;;;;;7.58;4.97;;;;;;;20.11;75.63;99703.30;1626052;84;21729;-85
2021/07/02 05:16:31;;;;;;;7.05;5.17;;;;;;;20.43;74.82;99706.47;1633155;84;20925;-85
2021/07/02 05:18:57;;;;;;;7.75;5.78;;;;;;;20.31;74.80;99710.50;1639337;84;21088;-90
2021/07/02 05:21:22;;;;;;;8.25;6.03;;;;;;;20.31;74.97;99710.50;1645266;84;21001;-88
2021/07/02 05:23:48;;;;;;;9.08;6.30;;;;;;;20.19;75.32;99709.66;1620653;84;21151;-89
2021/07/02 05:26:14;;;;;;;8.10;6.08;;;;;;;20.25;74.75;99707.41;1643807;84;21281;-86
2021/07/02 05:28:40;;;;;;;9.55;5.85;;;;;;;20.19;74.94;99706.98;1645377;84;21021;-90
2021/07/02 05:31:06;;;;;;;8.83;6.00;;;;;;;20.33;74.14;99709.73;1646811;84;20950;-88
2021/07/02 05:33:32;;;;;;;9.08;6.05;;;;;;;20.38;73.70;99711.19;1653334;84;21029;-83
2021/07/02 05:35:58;;;;;;;9.83;6.80;;;;;;;20.37;74.30;99720.30;1626491;84;21801;-86
2021/07/02 05:38:24;;;;;;;10.38;7.58;;;;;;;20.12;74.87;99725.02;1623258;84;20917;-86
2021/07/02 05:40:55;;;;;;;12.20;8.80;;;;;;;19.97;75.15;99727.61;1658100;84;20984;-88
2021/07/02 05:43:20;;;;;;;10.65;7.90;;;;;;;19.74;75.97;99730.45;1632724;84;21013;-86
2021/07/02 05:45:45;;;;;;;11.60;8.15;;;;;;;19.83;75.56;99727.52;1643303;84;21149;-86
2021/07/02 05:48:16;;;;;;;10.65;8.38;;;;;;;20.04;74.97;99724.32;1642815;84;21157;-91
2021/07/02 05:50:41;;;;;;;11.63;8.93;;;;;;;19.94;75.31;99722.70;1641756;83;21131;-88
2021/07/02 05:53:06;;;;;;;12.95;9.20;;;;;;;19.92;75.46;99724.81;1627977;84;21021;-88
2021/07/02 05:55:32;;;;;;;12.28;10.00;;;;;;;19.80;75.75;99723.95;1638319;84;21117;-83
2021/07/02 05:57:58;;;;;;;13.03;10.98;;;;;;;19.90;75.36;99724.20;1646564;84;21119;-83
2021/07/02 06:00:24;;;;;;;13.10;10.03;;;;;;;19.87;75.54;99730.85;1630659;84;21848;-88
2021/07/02 06:02:50;;;;;;;13.62;10.63;;;;;;;20.21;74.41;99735.71;1630594;84;20996;-84
2021/07/02 06:05:16;;;;;;;13.83;11.12;;;;;;;20.28;73.90;99724.91;1639222;84;20940;-82
2021/07/02 06:07:52;;;;;;;18.17;11.38;;;;;;;20.19;74.31;99729.77;1659085;84;21305;-83
2021/07/02 06:10:19;;;;;;;15.88;11.80;;;;;;;20.15;74.24;99740.65;1644988;84;21105;-85
2021/07/02 06:12:46;;;;;;;14.18;11.83;;;;;;;20.10;74.43;99731.95;1642009;84;21321;-84
2021/07/02 06:15:13;;;;;;;16.73;12.13;;;;;;;20.19;74.21;99743.98;1645710;85;21132;-86
2021/07/02 06:17:41;;;;;;;14.90;11.88;;;;;;;20.13;74.24;99747.58;1635898;84;21373;-82
2021/07/02 06:20:08;;;;;;;16.67;12.00;;;;;;;20.18;74.04;99731.64;1636151;84;21155;-83
2021/07/02 06:22:35;;;;;;;16.35;12.50;;;;;;;20.21;73.95;99741.91;1632837;84;21080;-81
2021/07/02 06:25:00;;;;;;;14.50;11.35;;;;;;;20.33;73.80;99734.41;1623701;84;21157;-84
2021/07/02 06:27:26;;;;;;;18.52;12.47;;;;;;;20.51;73.19;99733.48;1652446;84;20933;-81
2021/07/02 06:29:52;;;;;;;15.75;11.65;;;;;;;20.35;73.91;99740.34;1619210;84;20973;-82
2021/07/02 06:32:18;;;;;;;17.20;12.80;;;;;;;20.56;73.40;99734.96;1625877;84;20933;-82
2021/07/02 06:34:43;;;;;;;17.87;13.88;;;;;;;20.37;73.85;99756.51;1617921;84;20939;-83
2021/07/02 06:37:09;;;;;;;17.90;14.15;;;;;;;20.20;74.39;99750.18;1618222;84;21156;-81
2021/07/02 06:39:35;;;;;;;19.52;14.40;;;;;;;20.56;73.56;99745.69;1622797;84;21185;-83
2021/07/02 06:42:01;;;;;;;19.10;15.68;;;;;;;20.47;73.52;99748.42;1630516;84;20972;-82
2021/07/02 06:44:26;;;;;;;22.58;15.38;;;;;;;20.60;73.09;99749.52;1618410;84;20993;-81
2021/07/02 06:46:52;;;;;;;21.10;16.32;;;;;;;20.57;73.20;99755.35;1618133;84;21163;-83
2021/07/02 06:49:18;;;;;;;22.50;16.65;;;;;;;20.70;72.74;99755.17;1618179;84;21080;-83
2021/07/02 06:51:43;;;;;;;23.67;17.23;;;;;;;20.52;73.32;99749.87;1623139;85;20929;-84
2021/07/02 06:54:09;;;;;;;20.75;16.97;;;;;;;20.54;72.92;99749.95;1634782;84;20953;-83
2021/07/02 06:56:35;;;;;;;23.00;16.82;;;;;;;20.64;72.56;99756.07;1631795;85;20993;-83
2021/07/02 06:59:01;;;;;;;28.85;19.17;;;;;;;20.66;72.50;99751.31;1651232;86;20921;-83
2021/07/02 07:01:26;;;;;;;26.02;18.17;;;;;;;20.48;72.88;99756.73;1650397;85;21057;-82
2021/07/02 07:03:52;;;;;;;24.98;18.52;;;;;;;20.50;72.84;99749.30;1656526;84;21000;-83
2021/07/02 07:06:18;;;;;;;27.52;19.17;;;;;;;20.54;72.52;99745.08;1633064;84;20952;-82
2021/07/02 07:08:44;;;;;;;27.02;19.55;;;;;;;20.20;73.57;99744.81;1643495;84;21906;-84
2021/07/02 07:11:10;;;;;;;31.52;20.32;;;;;;;20.22;73.38;99737.36;1623216;84;21374;-82
2021/07/02 07:13:41;;;;;;;32.83;22.22;;;;;;;20.19;73.96;99740.49;1630555;84;21561;-82
2021/07/02 07:16:04;;;;;;;30.88;21.87;;;;;;;19.93;74.24;99745.72;1642503;85;21040;-82
2021/07/02 07:18:30;;;;;;;38.03;23.47;;;;;;;19.84;74.87;99738.50;1646749;84;21167;-81
2021/07/02 07:20:56;;;;;;;36.60;24.92;;;;;;;19.73;75.30;99742.23;1638589;84;21266;-81
2021/07/02 07:23:22;;;;;;;36.80;24.43;;;;;;;19.45;75.91;99752.68;1625400;84;21387;-81
2021/07/02 07:25:48;;;;;;;42.27;28.20;;;;;;;19.35;76.18;99736.62;1617845;84;21126;-82
2021/07/02 07:28:15;;;;;;;38.78;25.35;;;;;;;19.38;76.34;99728.14;1627795;84;21063;-81
2021/07/02 07:30:41;;;;;;;40.25;26.40;;;;;;;19.56;75.63;99729.19;1629302;84;21638;-83
2021/07/02 07:33:07;;;;;;;43.35;26.85;;;;;;;19.63;75.61;99713.83;1639400;85;21602;-83
2021/07/02 07:35:41;;;;;;;38.73;26.87;;;;;;;19.61;75.51;99710.56;1633052;84;21074;-83
2021/07/02 07:38:06;;;;;;;41.25;26.37;;;;;;;19.65;75.42;99715.74;1648360;85;21327;-82
2021/07/02 07:40:32;;;;;;;36.00;24.27;;;;;;;19.75;74.94;99697.80;1630480;85;20968;-82
2021/07/02 07:42:58;;;;;;;42.23;28.85;;;;;;;19.72;75.12;99700.94;1631411;84;21012;-82
2021/07/02 07:45:24;;;;;;;42.43;28.70;;;;;;;19.58;75.18;99703.48;1618246;86;20965;-82
2021/07/02 07:47:50;;;;;;;38.70;26.70;;;;;;;19.60;75.37;99720.97;1624319;84;21067;-83
2021/07/02 07:50:20;;;;;;;43.25;29.40;;;;;;;19.68;75.04;99711.80;1634838;84;22118;-83
2021/07/02 07:52:46;;;;;;;44.60;30.00;;;;;;;19.62;75.11;99712.71;1633518;84;21126;-82
2021/07/02 07:55:11;;;;;;;43.00;29.40;;;;;;;19.53;75.20;99715.71;1651193;84;21308;-82
2021/07/02 07:57:37;;;;;;;43.10;28.00;;;;;;;19.67;74.82;99709.66;1617748;84;21100;-83
2021/07/02 08:00:06;;;;;;;37.65;26.23;;;;;;;19.65;75.03;99714.41;1654016;84;21131;-83
2021/07/02 08:02:31;;;;;;;31.95;23.02;;;;;;;19.60;75.02;99704.09;1638710;84;21448;-82
2021/07/02 08:04:57;;;;;;;31.65;20.68;;;;;;;19.73;74.39;99724.83;1643582;84;21281;-81
2021/07/02 08:07:23;;;;;;;28.40;20.15;;;;;;;19.57;75.11;99714.73;1646291;85;21025;-81
2021/07/02 08:09:49;;;;;;;27.93;19.70;;;;;;;19.72;74.60;99712.47;1646769;84;20918;-82
2021/07/02 08:12:15;;;;;;;25.20;18.05;;;;;;;19.78;74.51;99708.60;1657816;86;21215;-82
2021/07/02 08:14:41;;;;;;;23.57;16.62;;;;;;;19.98;73.72;99702.45;1643015;85;21156;-82
2021/07/02 08:17:07;;;;;;;26.50;16.95;;;;;;;20.22;73.18;99705.18;1630772;84;21092;-82
2021/07/02 08:19:34;;;;;;;22.60;15.08;;;;;;;19.74;74.27;99723.77;1622728;84;20925;-83
2021/07/02 08:21:59;;;;;;;24.30;16.73;;;;;;;19.69;74.58;99720.95;1636063;84;21850;-82
2021/07/02 08:24:27;;;;;;;22.15;15.60;;;;;;;19.59;75.07;99722.53;1651481;84;21217;-82
2021/07/02 08:26:57;;;;;;;22.82;15.60;;;;;;;19.73;74.54;99739.56;1621706;84;21210;-82
2021/07/02 08:29:27;;;;;;;22.73;15.70;;;;;;;19.89;73.82;99734.64;1646074;85;21098;-82
2021/07/02 08:31:55;;;;;;;22.35;15.65;;;;;;;19.91;73.77;99745.94;1633670;84;21609;-82
2021/07/02 08:34:21;;;;;;;21.25;14.75;;;;;;;19.99;73.79;99741.59;1625705;84;21100;-82
2021/07/02 08:36:47;;;;;;;23.62;15.50;;;;;;;19.86;74.04;99738.59;1653854;84;21044;-82
2021/07/02 08:39:12;;;;;;;22.02;15.25;;;;;;;20.03;73.51;99752.16;1630594;84;21174;-81
2021/07/02 08:41:38;;;;;;;18.42;14.15;;;;;;;19.87;74.14;99740.23;1639729;85;20921;-82
2021/07/02 08:44:05;;;;;;;22.98;16.10;;;;;;;20.00;73.87;99740.55;1646748;84;21077;-83
2021/07/02 08:46:31;;;;;;;23.20;15.70;;;;;;;20.15;73.40;99737.97;1641678;84;21124;-82
2021/07/02 08:48:57;;;;;;;22.85;14.90;;;;;;;20.05;73.62;99747.38;1651284;84;21388;-82
2021/07/02 08:51:24;;;;;;;24.98;15.13;;;;;;;20.06;73.62;99745.00;1633429;85;21173;-84
2021/07/02 08:53:49;;;;;;;20.82;13.80;;;;;;;20.36;72.58;99749.50;1645179;84;21063;-82
2021/07/02 08:56:20;;;;;;;24.10;14.50;;;;;;;20.47;72.32;99747.08;1662083;84;22292;-84
2021/07/02 08:58:46;;;;;;;19.92;14.33;;;;;;;20.79;71.48;99753.78;1649239;84;21040;-82
2021/07/02 09:01:36;;;;;;;22.20;14.95;;;;;;;20.88;70.62;99756.94;1651094;84;21069;-81
2021/07/02 09:04:29;;;;;;;21.17;15.00;;;;;;;20.96;70.42;99750.40;1649131;86;21144;-82
2021/07/02 09:07:07;;;;;;;20.57;14.43;;;;;;;21.02;69.95;99763.39;1654194;84;21080;-82
2021/07/02 09:09:55;;;;;;;17.85;13.70;;;;;;;20.97;69.61;99765.44;1646026;85;21440;-82
2021/07/02 09:12:31;;;;;;;19.87;12.18;;;;;;;21.03;69.70;99772.55;1635269;84;21837;-82
2021/07/02 09:15:04;;;;;;;17.50;12.05;;;;;;;21.02;69.37;99765.56;1646058;84;21084;-82
2021/07/02 09:17:29;;;;;;;17.52;12.10;;;;;;;21.15;69.46;99760.47;1630128;84;21833;-84
2021/07/02 09:20:14;;;;;;;16.62;11.95;;;;;;;21.20;68.88;99763.25;1647238;84;20944;-84
2021/07/02 09:22:47;;;;;;;14.68;10.93;;;;;;;21.35;68.69;99762.77;1625760;84;21069;-82
2021/07/02 09:25:34;;;;;;;17.12;11.88;;;;;;;21.60;68.31;99766.53;1629996;84;21076;-82
2021/07/02 09:28:05;;;;;;;15.63;11.63;;;;;;;21.11;69.17;99775.41;1657236;84;21145;-83
2021/07/02 09:30:37;;;;;;;17.15;11.10;;;;;;;20.95;69.78;99783.65;1632190;85;21448;-82
2021/07/02 09:33:12;;;;;;;16.65;11.78;;;;;;;20.90;70.44;99778.17;1646378;84;21076;-82
2021/07/02 09:35:50;;;;;;;15.05;12.18;;;;;;;21.10;69.65;99785.34;1645430;84;21072;-82
2021/07/02 09:38:18;;;;;;;13.78;10.50;;;;;;;21.01;70.25;99777.34;1650117;85;21016;-83
2021/07/02 09:40:48;;;;;;;18.87;12.35;;;;;;;21.32;69.49;99804.34;1628747;85;21156;-82
2021/07/02 09:43:18;;;;;;;16.93;12.20;;;;;;;21.38;68.65;99795.87;1652045;85;21158;-82
2021/07/02 09:45:54;;;;;;;16.67;12.40;;;;;;;21.23;68.83;99798.23;1620998;84;21072;-83
2021/07/02 09:48:25;;;;;;;17.48;11.18;;;;;;;21.16;68.78;99788.43;1636096;84;21091;-82
2021/07/02 09:50:54;;;;;;;14.90;10.90;;;;;;;21.66;67.63;99788.42;1663125;86;21136;-85
2021/07/02 09:53:28;;;;;;;13.88;10.20;;;;;;;21.65;67.38;99773.88;1655924;85;21166;-83
2021/07/02 09:55:58;;;;;;;14.58;9.58;;;;;;;21.69;67.30;99779.08;1641130;85;21449;-83
2021/07/02 09:58:39;;;;;;;16.90;10.23;;;;;;;21.78;67.29;99757.48;1634492;84;21333;-81
2021/07/02 10:01:09;;;;;;;13.93;10.10;;;;;;;22.32;65.73;99764.37;1621477;86;32955;-81
2021/07/02 10:03:44;;;;;;;15.40;11.38;;;;;;;22.41;65.45;99768.29;1640487;85;21023;-83
2021/07/02 10:06:20;;;;;;;15.60;12.07;;;;;;;22.05;65.80;99779.75;1617775;84;21523;-82
2021/07/02 10:08:46;;;;;;;17.27;11.78;;;;;;;21.98;65.62;99780.41;1632337;86;21765;-82
2021/07/02 10:11:13;;;;;;;18.65;12.85;;;;;;;21.98;66.14;99787.94;1635800;84;21040;-82
2021/07/02 10:13:42;;;;;;;15.32;11.20;;;;;;;22.01;66.26;99771.87;1622406;84;21664;-81
2021/07/02 10:16:10;;;;;;;15.88;11.05;;;;;;;22.19;66.10;99771.66;1617913;84;21148;-81
2021/07/02 10:18:51;;;;;;;17.75;12.88;;;;;;;22.17;65.87;99775.64;1618034;84;21097;-83
2021/07/02 10:21:19;;;;;;;20.90;14.33;;;;;;;22.00;66.39;99783.16;1623030;84;21159;-82
2021/07/02 10:23:48;;;;;;;19.60;13.75;;;;;;;22.20;65.86;99788.09;1651835;86;21024;-82
2021/07/02 10:26:14;;;;;;;21.35;13.70;;;;;;;22.39;65.35;99775.80;1645472;86;21108;-84
2021/07/02 10:28:41;;;;;;;23.85;16.05;;;;;;;22.50;65.38;99784.32;1638357;85;21944;-80
2021/07/02 10:31:09;;;;;;;25.10;16.75;;;;;;;22.24;65.76;99782.50;1624986;84;21120;-82
2021/07/02 10:33:41;;;;;;;21.50;15.45;;;;;;;22.33;65.20;99780.81;1632804;84;21229;-83
2021/07/02 10:36:07;;;;;;;22.62;16.23;;;;;;;22.45;65.15;99783.41;1645990;84;21135;-81
2021/07/02 10:38:43;;;;;;;23.52;16.60;;;;;;;22.18;65.83;99781.31;1638313;84;21086;-82
2021/07/02 10:41:21;;;;;;;22.45;16.45;;;;;;;22.33;65.45;99776.77;1642331;84;21072;-83
2021/07/02 10:44:11;;;;;;;23.18;16.05;;;;;;;22.46;65.30;99767.02;1645837;84;21139;-82
2021/07/02 10:46:38;;;;;;;23.18;15.50;;;;;;;22.47;65.48;99773.23;1631943;84;21281;-84
2021/07/02 10:49:06;;;;;;;21.35;15.75;;;;;;;22.56;65.29;99769.08;1651158;86;21132;-81
2021/07/02 10:51:39;;;;;;;25.92;16.90;;;;;;;22.34;65.64;99777.88;1629492;84;21085;-82
2021/07/02 10:54:28;;;;;;;28.95;19.52;;;;;;;22.36;65.98;99766.88;1660304;84;21634;-82
2021/07/02 10:57:02;;;;;;;26.00;18.98;;;;;;;22.38;65.82;99768.78;1647416;84;21694;-82
2021/07/02 10:59:44;;;;;;;28.23;19.42;;;;;;;22.46;65.65;99771.05;1641997;85;21214;-83
2021/07/02 11:02:20;;;;;;;28.40;19.65;;;;;;;22.14;66.34;99776.95;1641806;84;21733;-82
2021/07/02 11:04:53;;;;;;;25.17;17.52;;;;;;;22.30;66.33;99774.53;1667653;84;21060;-81
2021/07/02 11:07:28;;;;;;;22.70;15.53;;;;;;;22.27;66.79;99770.98;1654357;83;21111;-82
2021/07/02 11:10:01;;;;;;;22.62;14.25;;;;;;;22.10;67.24;99781.17;1662619;83;21068;-82
2021/07/02 11:12:42;;;;;;;21.85;13.70;;;;;;;22.06;67.65;99771.95;1668452;83;21174;-83
2021/07/02 11:15:16;;;;;;;21.45;13.22;;;;;;;22.10;67.73;99766.92;1643963;83;21054;-83
2021/07/02 11:17:47;;;;;;;17.27;11.75;;;;;;;21.96;67.99;99774.47;1633065;86;21680;-82
2021/07/02 11:20:24;;;;;;;17.82;13.08;;;;;;;22.02;67.95;99773.51;1627682;86;21102;-82
2021/07/02 11:22:56;;;;;;;;;;;;;;;22.08;67.80;99769.86;1649022;86;21145;-82
2021/07/02 11:25:29;;;;;;;23.20;15.30;;;;;;;21.79;68.74;99759.63;1638569;86;20154;-81
2021/07/02 11:28:03;;;;;;;21.17;14.18;;;;;;;21.98;68.02;99772.34;1645960;85;21111;-83
2021/07/02 11:33:06;;;;;;;19.42;13.22;;;;;;;22.31;67.44;99768.11;1641151;85;21090;-82